Time;durP1;ratioP1;P1;durP2;ratioP2;P2;SDS_P1;SDS_P2;PMS_P1;PMS_P2;Temp;Humidity;BMP_temperature;BMP_pressure;BME280_temperature;BME280_humidity;BME280_pressure;Samples;Min_cycle;Max_cycle;Signal;HPM_P1;HPM_P2
2021/05/16 00:00:23;;;;;;;5.97;5.32;;;11.30;99.90;;;;;;5076265;28;20085;-83
2021/05/16 00:02:49;;;;;;;6.55;5.07;;;11.30;99.90;;;;;;5104297;28;20040;-83
2021/05/16 00:05:17;;;;;;;6.35;5.35;;;11.40;99.90;;;;;;5065740;28;20040;-83
2021/05/16 00:07:44;;;;;;;5.90;5.13;;;11.40;99.90;;;;;;5081423;28;20047;-82
2021/05/16 00:10:11;;;;;;;5.38;4.72;;;11.40;99.90;;;;;;5073915;28;20122;-82
2021/05/16 00:12:37;;;;;;;7.20;4.93;;;11.40;99.90;;;;;;5071873;28;20035;-83
2021/05/16 00:15:06;;;;;;;6.30;5.70;;;11.40;99.90;;;;;;5064161;28;20456;-83
2021/05/16 00:17:32;;;;;;;6.40;5.43;;;11.40;99.90;;;;;;5055384;28;20064;-83
2021/05/16 00:19:58;;;;;;;7.47;5.30;;;11.30;99.90;;;;;;5105318;28;20067;-82
2021/05/16 00:22:24;;;;;;;6.13;5.43;;;11.30;99.90;;;;;;5071718;28;20074;-83
2021/05/16 00:24:50;;;;;;;5.65;5.00;;;11.30;99.90;;;;;;5072945;28;20120;-83
2021/05/16 00:27:16;;;;;;;8.20;6.05;;;11.20;99.90;;;;;;5072760;28;20036;-83
2021/05/16 00:29:42;;;;;;;6.90;5.40;;;11.20;99.90;;;;;;5072853;28;20406;-83
2021/05/16 00:32:08;;;;;;;6.78;5.63;;;11.20;99.90;;;;;;5058214;28;20032;-82
2021/05/16 00:34:34;;;;;;;6.25;5.65;;;11.20;99.90;;;;;;5038810;28;20104;-83
2021/05/16 00:37:00;;;;;;;6.55;5.88;;;11.20;99.90;;;;;;5063977;28;20028;-82
2021/05/16 00:39:26;;;;;;;9.60;6.18;;;11.30;99.90;;;;;;5059780;28;20058;-83
2021/05/16 00:41:52;;;;;;;8.30;6.22;;;11.30;99.90;;;;;;5061075;28;20484;-83
2021/05/16 00:44:19;;;;;;;7.10;6.40;;;11.20;99.90;;;;;;5065240;28;20456;-83
2021/05/16 00:46:45;;;;;;;7.88;6.30;;;11.20;99.90;;;;;;5055309;28;20044;-83
2021/05/16 00:49:11;;;;;;;7.45;6.30;;;11.20;99.90;;;;;;5047558;28;20377;-83
2021/05/16 00:51:37;;;;;;;9.10;5.95;;;11.30;99.90;;;;;;5063642;28;20036;-83
2021/05/16 00:54:08;;;;;;;6.70;6.00;;;11.30;99.90;;;;;;5060573;28;20150;-83
2021/05/16 00:56:36;;;;;;;7.40;5.43;;;11.30;99.90;;;;;;5056101;28;20040;-83
2021/05/16 00:59:03;;;;;;;8.10;6.57;;;11.30;99.90;;;;;;5085840;28;20415;-83
2021/05/16 01:01:29;;;;;;;7.30;6.22;;;11.30;99.90;;;;;;5043991;28;20104;-82
2021/05/16 01:03:55;;;;;;;6.88;5.88;;;11.20;99.90;;;;;;5048682;28;20040;-83
2021/05/16 01:06:21;;;;;;;7.32;6.63;;;11.20;99.90;;;;;;5067354;28;20114;-83
2021/05/16 01:08:48;;;;;;;8.15;7.32;;;11.20;99.90;;;;;;5065276;28;20070;-83
2021/05/16 01:11:16;;;;;;;9.02;7.70;;;11.20;99.90;;;;;;5060438;28;20105;-81
2021/05/16 01:13:46;;;;;;;8.80;7.65;;;11.20;99.90;;;;;;5074801;28;20408;-82
2021/05/16 01:16:11;;;;;;;9.50;7.40;;;11.20;99.90;;;;;;5107819;28;20032;-81
2021/05/16 01:18:37;;;;;;;9.05;7.72;;;11.30;99.90;;;;;;5085773;28;20109;-81
2021/05/16 01:21:03;;;;;;;8.50;7.70;;;11.30;99.90;;;;;;5037079;28;20033;-81
2021/05/16 01:23:37;;;;;;;10.80;8.13;;;11.30;99.90;;;;;;5071122;28;20036;-81
2021/05/16 01:26:05;;;;;;;7.97;7.18;;;11.30;99.90;;;;;;5073333;28;20047;-81
2021/05/16 01:28:31;;;;;;;10.95;8.77;;;11.30;99.90;;;;;;5071672;28;20041;-81
2021/05/16 01:30:57;;;;;;;10.63;9.30;;;11.30;99.90;;;;;;5072482;28;20086;-81
2021/05/16 01:33:22;;;;;;;11.07;8.80;;;11.30;99.90;;;;;;5053783;28;20035;-81
2021/05/16 01:35:49;;;;;;;10.73;9.63;;;11.20;99.90;;;;;;5072298;28;20453;-81
2021/05/16 01:38:14;;;;;;;10.13;9.13;;;11.30;99.90;;;;;;5100069;28;20051;-80
2021/05/16 01:40:41;;;;;;;10.43;8.77;;;11.30;99.90;;;;;;5055392;28;20028;-81
2021/05/16 01:43:12;;;;;;;10.75;9.27;;;11.30;99.90;;;;;;5054329;28;20048;-81
2021/05/16 01:45:38;;;;;;;9.93;8.50;;;11.30;99.90;;;;;;5089917;28;20115;-81
2021/05/16 01:48:04;;;;;;;9.27;8.30;;;11.30;99.90;;;;;;5071645;28;20430;-81
2021/05/16 01:50:33;;;;;;;8.93;8.02;;;11.30;99.90;;;;;;5071360;28;20040;-81
2021/05/16 01:53:02;;;;;;;12.43;9.40;;;11.30;99.90;;;;;;5070575;28;20043;-81
2021/05/16 01:55:28;;;;;;;10.45;9.40;;;11.30;99.90;;;;;;5084175;28;20036;-81
2021/05/16 01:57:54;;;;;;;12.05;10.80;;;11.30;99.90;;;;;;5058524;28;20500;-81
2021/05/16 02:00:33;;;;;;;12.05;10.80;;;11.30;99.90;;;;;;5062742;28;20062;-81
2021/05/16 02:02:58;;;;;;;14.00;10.60;;;11.30;99.90;;;;;;5075783;28;20540;-81
2021/05/16 02:05:25;;;;;;;11.60;10.25;;;11.20;99.90;;;;;;5071439;28;20044;-81
2021/05/16 02:07:52;;;;;;;13.10;11.35;;;11.20;99.90;;;;;;5105593;28;20048;-81
2021/05/16 02:10:19;;;;;;;11.90;10.70;;;11.10;99.90;;;;;;5074376;28;20088;-83
2021/05/16 02:12:45;;;;;;;13.20;11.18;;;11.10;99.90;;;;;;5102827;28;20724;-80
2021/05/16 02:15:12;;;;;;;12.65;11.00;;;11.10;99.90;;;;;;5059932;28;20058;-81
2021/05/16 02:17:40;;;;;;;13.55;12.15;;;11.00;99.90;;;;;;5070479;28;20088;-81
2021/05/16 02:20:18;;;;;;;14.15;10.20;;;10.90;99.90;;;;;;5038968;28;20052;-81
2021/05/16 02:22:44;;;;;;;12.77;11.48;;;10.90;99.90;;;;;;5080631;28;20059;-81
2021/05/16 02:25:11;;;;;;;12.63;11.23;;;10.90;99.90;;;;;;5050833;28;20052;-81
2021/05/16 02:27:38;;;;;;;14.13;11.68;;;10.80;99.90;;;;;;5061801;28;20145;-80
2021/05/16 02:30:08;;;;;;;12.35;10.98;;;10.80;99.90;;;;;;5054385;28;20055;-80
2021/05/16 02:32:34;;;;;;;13.05;11.70;;;10.80;99.90;;;;;;5085686;28;20032;-81
2021/05/16 02:35:00;;;;;;;14.75;13.10;;;10.80;99.90;;;;;;5072319;28;20475;-81
2021/05/16 02:37:26;;;;;;;14.45;12.93;;;10.80;99.90;;;;;;5071206;28;20047;-81
2021/05/16 02:39:51;;;;;;;14.40;12.90;;;10.80;99.90;;;;;;5053682;28;20044;-81
2021/05/16 02:42:17;;;;;;;15.88;13.77;;;10.80;99.90;;;;;;5059146;28;20776;-81
2021/05/16 02:44:43;;;;;;;15.52;13.93;;;10.90;99.90;;;;;;5070131;28;20044;-81
2021/05/16 02:47:09;;;;;;;16.25;13.90;;;10.80;99.90;;;;;;5054438;28;20040;-81
2021/05/16 02:49:34;;;;;;;16.20;13.52;;;10.80;99.90;;;;;;5070136;28;20028;-81
2021/05/16 02:52:00;;;;;;;15.85;13.23;;;10.70;99.90;;;;;;5053617;28;20127;-81
2021/05/16 02:54:26;;;;;;;15.75;13.52;;;10.70;99.90;;;;;;5086873;28;20043;-81
2021/05/16 02:56:52;;;;;;;16.02;14.32;;;10.70;99.90;;;;;;5061707;28;20406;-81
2021/05/16 02:59:18;;;;;;;16.40;14.50;;;10.70;99.90;;;;;;5078874;28;20068;-81
2021/05/16 03:01:44;;;;;;;17.83;15.52;;;10.70;99.90;;;;;;5083205;28;20059;-80
2021/05/16 03:04:09;;;;;;;17.30;15.43;;;10.70;99.90;;;;;;5055015;28;20121;-81
2021/05/16 03:06:35;;;;;;;18.08;15.02;;;10.70;99.90;;;;;;5074844;28;20036;-81
2021/05/16 03:09:02;;;;;;;19.75;15.82;;;10.70;99.90;;;;;;5053249;28;20032;-81
2021/05/16 03:11:28;;;;;;;18.50;15.82;;;10.60;99.90;;;;;;5081824;28;20089;-81
2021/05/16 03:13:54;;;;;;;17.73;15.82;;;10.60;99.90;;;;;;5033832;28;20044;-81
2021/05/16 03:16:19;;;;;;;21.63;17.55;;;10.60;99.90;;;;;;5099239;28;20040;-81
2021/05/16 03:18:45;;;;;;;19.02;16.55;;;10.50;99.90;;;;;;5047242;28;20377;-81
2021/05/16 03:21:11;;;;;;;17.73;15.32;;;10.50;99.90;;;;;;5037154;28;20048;-81
2021/05/16 03:23:37;;;;;;;19.35;16.52;;;10.50;99.90;;;;;;5038874;28;20064;-81
2021/05/16 03:26:03;;;;;;;20.00;16.42;;;10.50;99.90;;;;;;5068009;28;20036;-81
2021/05/16 03:28:30;;;;;;;19.60;15.70;;;10.50;99.90;;;;;;5063885;28;20040;-81
2021/05/16 03:30:56;;;;;;;17.50;13.85;;;10.50;99.90;;;;;;5073608;28;20036;-81
2021/05/16 03:33:22;;;;;;;18.45;14.55;;;10.50;99.90;;;;;;5090342;28;20048;-81
2021/05/16 03:35:49;;;;;;;18.05;14.98;;;10.40;99.90;;;;;;5037528;28;20040;-81
2021/05/16 03:38:15;;;;;;;16.67;14.85;;;10.40;99.90;;;;;;5075543;28;20040;-81
2021/05/16 03:40:41;;;;;;;17.10;14.07;;;10.30;99.90;;;;;;5063578;28;20040;-81
2021/05/16 03:43:07;;;;;;;19.02;16.25;;;10.30;99.90;;;;;;5073402;28;20036;-81
2021/05/16 03:45:33;;;;;;;17.92;15.63;;;10.30;99.90;;;;;;5057193;28;20059;-81
2021/05/16 03:47:59;;;;;;;19.10;16.40;;;10.30;99.90;;;;;;5057519;28;20070;-81
2021/05/16 03:50:25;;;;;;;18.25;16.08;;;10.20;99.90;;;;;;5040621;28;20060;-81
2021/05/16 03:52:51;;;;;;;20.92;17.55;;;10.20;99.90;;;;;;5061833;28;20039;-81
2021/05/16 03:55:19;;;;;;;22.02;18.40;;;10.20;99.90;;;;;;5103203;28;20043;-80
2021/05/16 03:57:45;;;;;;;20.60;16.65;;;10.10;99.90;;;;;;5055862;28;20037;-81
2021/05/16 04:00:11;;;;;;;19.95;17.55;;;10.10;99.90;;;;;;5073816;28;20067;-81
2021/05/16 04:02:37;;;;;;;23.02;17.27;;;10.10;99.90;;;;;;5059959;28;20035;-81
2021/05/16 04:05:03;;;;;;;21.35;18.63;;;10.10;99.90;;;;;;5053680;28;20036;-82
2021/05/16 04:07:29;;;;;;;21.85;17.75;;;10.10;99.90;;;;;;5069133;28;20040;-81
2021/05/16 04:09:55;;;;;;;21.20;17.58;;;10.10;99.90;;;;;;5038046;28;20449;-81
2021/05/16 04:12:20;;;;;;;23.25;18.90;;;10.20;99.90;;;;;;5066399;28;20046;-81
2021/05/16 04:14:49;;;;;;;24.90;18.88;;;10.20;99.90;;;;;;5087151;28;20091;-81
2021/05/16 04:17:16;;;;;;;25.98;18.67;;;10.30;99.90;;;;;;5052903;28;20553;-81
2021/05/16 04:19:42;;;;;;;24.27;19.25;;;10.30;99.90;;;;;;5073720;28;20048;-81
2021/05/16 04:22:08;;;;;;;35.53;21.95;;;10.30;99.90;;;;;;5056338;28;20050;-82
2021/05/16 04:24:34;;;;;;;39.70;23.40;;;10.30;99.90;;;;;;5072519;28;20051;-81
2021/05/16 04:27:00;;;;;;;40.25;25.55;;;10.30;99.90;;;;;;5080622;28;20041;-81
2021/05/16 04:29:26;;;;;;;41.75;25.38;;;10.30;99.90;;;;;;5064970;28;20534;-81
2021/05/16 04:31:52;;;;;;;51.75;27.00;;;10.30;99.90;;;;;;5064629;28;20064;-81
2021/05/16 04:34:17;;;;;;;40.40;26.70;;;10.40;99.90;;;;;;5072954;28;20036;-82
2021/05/16 04:36:43;;;;;;;38.40;25.02;;;10.40;99.90;;;;;;5075807;28;20131;-81
2021/05/16 04:39:09;;;;;;;41.38;23.70;;;10.40;99.90;;;;;;5070046;28;20086;-81
2021/05/16 04:41:35;;;;;;;35.60;23.50;;;10.40;99.90;;;;;;5046289;28;20101;-81
2021/05/16 04:44:01;;;;;;;38.85;23.35;;;10.40;99.90;;;;;;5056402;28;20549;-81
2021/05/16 04:46:27;;;;;;;35.05;20.02;;;10.50;99.90;;;;;;5073061;28;20101;-81
2021/05/16 04:48:53;;;;;;;33.15;20.35;;;10.50;99.90;;;;;;5056329;28;20036;-81
2021/05/16 04:51:19;;;;;;;26.85;17.05;;;10.50;99.90;;;;;;5056048;28;20101;-82
2021/05/16 04:53:45;;;;;;;21.88;14.98;;;10.50;99.90;;;;;;5072044;28;20494;-81
2021/05/16 04:56:11;;;;;;;21.80;14.43;;;10.50;99.90;;;;;;5057347;28;20061;-81
2021/05/16 04:58:37;;;;;;;21.17;14.05;;;10.50;99.90;;;;;;5076258;28;20032;-81
2021/05/16 05:01:05;;;;;;;24.88;15.00;;;10.50;99.90;;;;;;5048858;28;20164;-82
2021/05/16 05:03:32;;;;;;;25.30;15.60;;;10.50;99.90;;;;;;5076648;28;20044;-81
2021/05/16 05:05:58;;;;;;;25.25;16.15;;;10.50;99.90;;;;;;5072618;28;20310;-81
2021/05/16 05:08:26;;;;;;;24.63;16.60;;;10.60;99.90;;;;;;5049860;28;20049;-81
2021/05/16 05:10:52;;;;;;;29.80;17.45;;;10.60;99.90;;;;;;5074037;28;20142;-81
2021/05/16 05:13:19;;;;;;;27.67;18.55;;;10.60;99.90;;;;;;5052419;28;20032;-81
2021/05/16 05:15:45;;;;;;;31.27;18.42;;;10.60;99.90;;;;;;5067179;28;20036;-81
2021/05/16 05:18:11;;;;;;;28.17;18.33;;;10.60;99.90;;;;;;5055833;28;20043;-81
2021/05/16 05:20:37;;;;;;;33.75;20.38;;;10.70;99.90;;;;;;5070719;28;20115;-81
2021/05/16 05:23:03;;;;;;;36.20;20.83;;;10.70;99.90;;;;;;5059028;28;20418;-81
2021/05/16 05:25:29;;;;;;;40.53;21.58;;;10.80;99.90;;;;;;5055393;28;20044;-81
2021/05/16 05:27:55;;;;;;;28.55;19.38;;;10.80;99.90;;;;;;5081999;28;20043;-81
2021/05/16 05:30:23;;;;;;;35.15;21.33;;;10.80;99.90;;;;;;5055990;28;20062;-81
2021/05/16 05:32:50;;;;;;;31.25;20.42;;;10.90;99.90;;;;;;5054415;28;20498;-81
2021/05/16 05:35:16;;;;;;;37.28;21.75;;;10.90;99.90;;;;;;5075901;28;20105;-81
2021/05/16 05:37:43;;;;;;;37.00;20.98;;;11.00;99.90;;;;;;5071950;28;20554;-81
2021/05/16 05:40:10;;;;;;;33.25;20.67;;;11.00;99.90;;;;;;5095459;28;20137;-81
2021/05/16 05:42:36;;;;;;;36.38;20.90;;;11.00;99.90;;;;;;5085900;28;20726;-82
2021/05/16 05:45:03;;;;;;;37.83;21.05;;;11.10;99.90;;;;;;5050846;28;20127;-81
2021/05/16 05:47:29;;;;;;;35.88;19.65;;;11.10;99.90;;;;;;5077534;28;20495;-81
2021/05/16 05:49:55;;;;;;;32.25;17.88;;;11.20;99.90;;;;;;5078202;28;20085;-82
2021/05/16 05:52:21;;;;;;;33.63;15.68;;;11.30;99.90;;;;;;5104405;28;20087;-81
2021/05/16 05:54:47;;;;;;;23.92;12.70;;;11.30;99.90;;;;;;5043707;28;20031;-81
2021/05/16 05:57:13;;;;;;;26.63;13.48;;;11.30;99.90;;;;;;5089509;28;20376;-81
2021/05/16 05:59:39;;;;;;;24.55;12.20;;;11.30;99.90;;;;;;5056698;28;20038;-81
2021/05/16 06:02:06;;;;;;;29.77;13.20;;;11.30;99.90;;;;;;5054784;28;20071;-81
2021/05/16 06:04:32;;;;;;;23.92;11.63;;;11.30;99.90;;;;;;5081373;28;20036;-82
2021/05/16 06:06:58;;;;;;;27.52;11.60;;;11.30;99.90;;;;;;5044596;28;20047;-81
2021/05/16 06:09:23;;;;;;;25.95;11.85;;;11.20;99.90;;;;;;5053768;28;20402;-81
2021/05/16 06:11:49;;;;;;;24.20;12.52;;;11.30;99.90;;;;;;5069919;28;20039;-81
2021/05/16 06:14:15;;;;;;;32.88;12.73;;;11.20;99.90;;;;;;5069923;28;20032;-81
2021/05/16 06:16:43;;;;;;;23.25;12.30;;;11.20;99.90;;;;;;5060488;28;20048;-82
2021/05/16 06:19:09;;;;;;;23.67;12.60;;;11.20;99.90;;;;;;5081173;28;20414;-81
2021/05/16 06:21:34;;;;;;;22.90;11.93;;;11.20;99.90;;;;;;5052826;28;20031;-81
2021/05/16 06:24:06;;;;;;;26.88;14.02;;;11.20;99.90;;;;;;5088127;28;20468;-81
2021/05/16 06:26:36;;;;;;;25.70;12.02;;;11.20;99.90;;;;;;5039310;28;20052;-81
2021/05/16 06:29:03;;;;;;;29.33;13.13;;;11.30;99.90;;;;;;5070093;28;20126;-82
2021/05/16 06:31:30;;;;;;;23.15;13.13;;;11.30;99.90;;;;;;5068891;28;20066;-81
2021/05/16 06:33:56;;;;;;;25.35;12.52;;;11.30;99.90;;;;;;5092357;28;20089;-81
2021/05/16 06:36:22;;;;;;;22.55;11.48;;;11.30;99.90;;;;;;5054651;28;20500;-81
2021/05/16 06:38:48;;;;;;;15.00;9.07;;;11.30;99.90;;;;;;5070929;28;20564;-81
2021/05/16 06:41:18;;;;;;;28.85;10.57;;;11.40;99.90;;;;;;5052057;28;20032;-80
2021/05/16 06:43:45;;;;;;;22.20;8.18;;;11.50;99.90;;;;;;5076123;28;20032;-80
2021/05/16 06:46:12;;;;;;;21.95;8.80;;;11.50;99.90;;;;;;5071924;28;20028;-80
2021/05/16 06:48:38;;;;;;;14.98;6.78;;;11.60;99.90;;;;;;5069192;28;20036;-80
2021/05/16 06:51:07;;;;;;;21.88;7.57;;;11.70;99.90;;;;;;5077646;28;20163;-79
2021/05/16 06:53:34;;;;;;;19.88;7.57;;;11.80;99.90;;;;;;5076890;28;20062;-80
2021/05/16 06:56:00;;;;;;;13.55;6.25;;;11.90;99.90;;;;;;5071176;28;20487;-82
2021/05/16 06:58:26;;;;;;;14.43;5.00;;;11.90;99.90;;;;;;5071323;28;20122;-81
2021/05/16 07:00:52;;;;;;;13.13;5.88;;;11.90;99.90;;;;;;5075553;28;20098;-81
2021/05/16 07:03:18;;;;;;;16.70;6.15;;;11.90;99.90;;;;;;5079524;28;20049;-81
2021/05/16 07:05:44;;;;;;;12.70;6.75;;;11.90;99.90;;;;;;5070985;28;20036;-82
2021/05/16 07:08:10;;;;;;;19.63;9.20;;;11.80;99.90;;;;;;5070429;28;20073;-82
2021/05/16 07:10:36;;;;;;;13.35;8.07;;;11.80;99.90;;;;;;5035801;28;20042;-82
2021/05/16 07:13:02;;;;;;;16.17;9.00;;;11.80;99.90;;;;;;5083342;28;20036;-82
2021/05/16 07:15:28;;;;;;;15.60;8.13;;;11.90;99.90;;;;;;5069910;28;20540;-81
2021/05/16 07:17:54;;;;;;;14.50;6.00;;;11.90;99.90;;;;;;5071010;28;20039;-82
2021/05/16 07:20:20;;;;;;;15.52;6.93;;;11.90;99.90;;;;;;5062400;28;20040;-82
2021/05/16 07:22:46;;;;;;;15.65;6.28;;;11.90;99.90;;;;;;5081332;28;20035;-82
2021/05/16 07:25:13;;;;;;;9.80;5.78;;;11.90;99.90;;;;;;5046205;28;20056;-82
2021/05/16 07:27:39;;;;;;;12.57;5.72;;;11.90;99.90;;;;;;5048480;28;20172;-83
2021/05/16 07:30:06;;;;;;;17.63;7.47;;;11.80;99.90;;;;;;5070393;28;20036;-83
2021/05/16 07:32:33;;;;;;;13.77;8.25;;;11.80;99.90;;;;;;5084873;28;20044;-82
2021/05/16 07:34:58;;;;;;;16.13;9.75;;;11.80;99.90;;;;;;5069794;28;20036;-82
2021/05/16 07:37:24;;;;;;;18.38;9.32;;;11.80;99.90;;;;;;5053510;28;20081;-82
2021/05/16 07:39:50;;;;;;;19.10;10.23;;;11.80;99.90;;;;;;5057720;28;20507;-82
2021/05/16 07:42:16;;;;;;;19.02;9.48;;;11.80;99.90;;;;;;5070374;28;20090;-81
2021/05/16 07:44:42;;;;;;;22.00;9.70;;;11.80;99.90;;;;;;5087402;28;20055;-82
2021/05/16 07:47:09;;;;;;;16.05;8.05;;;11.70;99.90;;;;;;5070197;28;20071;-83
2021/05/16 07:49:35;;;;;;;18.67;8.85;;;11.60;99.90;;;;;;5074166;28;20546;-83
2021/05/16 07:52:01;;;;;;;16.40;8.20;;;11.60;99.90;;;;;;5052813;28;20500;-83
2021/05/16 07:54:27;;;;;;;16.63;8.95;;;11.70;99.90;;;;;;5069299;28;20043;-83
2021/05/16 07:56:53;;;;;;;21.05;7.88;;;11.70;99.90;;;;;;5040645;28;20081;-83
2021/05/16 07:59:19;;;;;;;17.95;8.65;;;11.70;99.90;;;;;;5063889;28;20490;-84
2021/05/16 08:01:48;;;;;;;18.10;8.50;;;11.80;99.90;;;;;;5067598;28;20058;-83
2021/05/16 08:04:14;;;;;;;12.25;7.53;;;11.90;99.90;;;;;;5052211;28;20044;-83
2021/05/16 08:06:40;;;;;;;16.35;8.27;;;11.90;99.90;;;;;;5037876;28;20036;-83
2021/05/16 08:09:06;;;;;;;16.10;9.63;;;11.90;99.90;;;;;;5079052;28;20042;-84
2021/05/16 08:11:32;;;;;;;14.45;9.20;;;12.00;99.90;;;;;;5063101;28;20118;-85
2021/05/16 08:13:58;;;;;;;17.27;10.00;;;11.90;99.90;;;;;;5065545;28;20563;-85
2021/05/16 08:16:24;;;;;;;13.57;6.55;;;11.90;99.90;;;;;;5091076;28;20040;-83
2021/05/16 08:18:52;;;;;;;16.33;8.35;;;11.90;99.90;;;;;;5055758;28;20028;-84
2021/05/16 08:21:19;;;;;;;14.73;7.18;;;11.80;99.90;;;;;;5040107;28;20872;-83
2021/05/16 08:23:45;;;;;;;18.02;8.70;;;11.80;99.90;;;;;;5094406;28;20419;-84
2021/05/16 08:26:11;;;;;;;16.63;7.75;;;11.80;99.90;;;;;;5043087;28;20044;-84
2021/05/16 08:28:37;;;;;;;17.73;8.30;;;11.80;99.90;;;;;;5084382;28;20126;-83
2021/05/16 08:31:03;;;;;;;14.30;8.25;;;11.80;99.90;;;;;;5072207;28;20057;-83
2021/05/16 08:33:29;;;;;;;18.60;10.07;;;11.80;99.90;;;;;;5070268;28;20040;-83
2021/05/16 08:35:55;;;;;;;15.35;9.35;;;11.80;99.90;;;;;;5074542;28;20487;-83
2021/05/16 08:38:21;;;;;;;21.83;10.85;;;11.70;99.90;;;;;;5072043;28;20040;-83
2021/05/16 08:40:47;;;;;;;21.17;10.80;;;11.70;99.90;;;;;;5053801;28;20544;-84
2021/05/16 08:43:13;;;;;;;28.95;13.95;;;11.60;99.90;;;;;;5037446;28;20445;-84
2021/05/16 08:45:38;;;;;;;30.17;15.65;;;11.30;99.90;;;;;;5049613;28;20059;-84
2021/05/16 08:48:05;;;;;;;32.80;14.75;;;11.20;99.90;;;;;;5052828;28;20039;-84
2021/05/16 08:50:31;;;;;;;32.03;15.18;;;11.20;99.90;;;;;;5054202;28;20106;-84
2021/05/16 08:52:57;;;;;;;28.20;14.80;;;11.10;99.90;;;;;;5056176;28;20135;-84
2021/05/16 08:55:23;;;;;;;32.38;16.30;;;11.20;99.90;;;;;;5050411;28;20142;-84
2021/05/16 08:57:49;;;;;;;30.27;14.93;;;11.20;99.90;;;;;;5058154;28;20036;-84
2021/05/16 09:00:16;;;;;;;35.10;14.57;;;11.20;99.90;;;;;;5042603;28;20040;-86
2021/05/16 09:03:08;;;;;;;26.13;13.65;;;11.30;99.90;;;;;;5086685;28;20510;-87
2021/05/16 09:05:46;;;;;;;31.65;14.43;;;11.40;99.90;;;;;;5078762;28;20071;-84
2021/05/16 09:08:15;;;;;;;25.10;12.90;;;11.40;99.90;;;;;;5075059;28;20145;-84
2021/05/16 09:10:45;;;;;;;15.50;10.05;;;11.40;99.90;;;;;;5061037;28;20042;-85
2021/05/16 09:13:17;;;;;;;17.73;10.23;;;11.40;99.90;;;;;;5100032;28;20035;-84
2021/05/16 09:16:03;;;;;;;16.52;10.98;;;11.30;99.90;;;;;;5074715;28;20561;-84
2021/05/16 09:18:48;;;;;;;24.38;11.85;;;11.30;99.90;;;;;;5090035;28;20495;-83
2021/05/16 09:21:28;;;;;;;24.27;13.23;;;11.30;99.90;;;;;;5073027;28;20043;-83
2021/05/16 09:24:00;;;;;;;26.58;10.75;;;11.30;99.90;;;;;;5071242;28;20475;-84
2021/05/16 09:26:27;;;;;;;23.77;9.85;;;11.30;99.90;;;;;;5068244;28;20048;-84
2021/05/16 09:28:56;;;;;;;18.35;8.07;;;11.40;99.90;;;;;;5074409;28;20050;-83
2021/05/16 09:31:35;;;;;;;14.23;7.85;;;11.40;99.90;;;;;;5062029;28;20171;-84
2021/05/16 09:34:04;;;;;;;18.02;8.75;;;11.40;99.90;;;;;;5053700;28;20047;-84
2021/05/16 09:36:34;;;;;;;13.20;8.45;;;11.50;99.90;;;;;;5072298;28;20055;-84
2021/05/16 09:39:18;;;;;;;15.30;8.20;;;11.50;99.90;;;;;;5055005;28;20032;-84
2021/05/16 09:42:01;;;;;;;12.73;7.65;;;11.60;99.90;;;;;;5070836;28;20071;-84
2021/05/16 09:44:42;;;;;;;14.90;7.88;;;11.70;99.90;;;;;;5070434;28;20103;-84
2021/05/16 09:47:18;;;;;;;18.15;7.50;;;11.80;99.90;;;;;;5072278;28;20090;-84
2021/05/16 09:49:50;;;;;;;9.48;6.32;;;11.90;99.90;;;;;;5072249;28;20035;-84
2021/05/16 09:52:18;;;;;;;9.57;5.88;;;11.90;99.90;;;;;;5072062;28;20055;-84
2021/05/16 09:55:19;;;;;;;9.43;6.30;;;12.00;99.90;;;;;;5070746;28;20032;-83
2021/05/16 09:57:49;;;;;;;8.05;5.05;;;11.90;99.90;;;;;;5071178;28;20495;-83
2021/05/16 10:00:17;;;;;;;5.25;2.50;;;11.80;99.90;;;;;;5056786;28;20119;-84
2021/05/16 10:02:43;;;;;;;6.85;3.65;;;11.70;99.90;;;;;;5068989;28;20044;-84
2021/05/16 10:05:14;;;;;;;7.63;3.58;;;11.70;99.90;;;;;;5069094;28;20040;-84
2021/05/16 10:07:40;;;;;;;9.18;4.18;;;11.80;99.90;;;;;;5068604;28;20166;-83
2021/05/16 10:10:07;;;;;;;7.75;4.03;;;11.90;99.90;;;;;;5084319;28;20032;-83
2021/05/16 10:12:36;;;;;;;8.98;4.80;;;11.90;99.90;;;;;;5047394;28;20028;-84
2021/05/16 10:15:08;;;;;;;8.00;3.90;;;11.90;99.90;;;;;;5066334;28;20093;-84
2021/05/16 10:17:36;;;;;;;4.53;2.00;;;11.80;99.90;;;;;;5084840;28;20044;-83
2021/05/16 10:20:11;;;;;;;4.57;1.83;;;11.80;99.90;;;;;;5049308;28;20044;-84
2021/05/16 10:22:39;;;;;;;4.28;1.50;;;11.80;99.90;;;;;;5066051;28;20039;-84
2021/05/16 10:25:06;;;;;;;4.05;1.45;;;11.90;99.90;;;;;;5069623;28;20051;-83
2021/05/16 10:27:44;;;;;;;3.22;0.82;;;11.90;99.90;;;;;;5070068;28;20162;-84
2021/05/16 10:30:14;;;;;;;4.25;0.90;;;11.90;99.90;;;;;;5090594;28;20107;-84
2021/05/16 10:32:46;;;;;;;2.60;0.90;;;11.90;99.90;;;;;;5075552;28;20084;-84
2021/05/16 10:35:13;;;;;;;2.35;0.65;;;11.90;99.90;;;;;;5069170;28;20055;-84
2021/05/16 10:37:47;;;;;;;3.90;0.98;;;12.00;99.90;;;;;;5070096;28;20103;-83
2021/05/16 10:40:29;;;;;;;4.10;1.23;;;12.00;99.90;;;;;;5055852;28;20774;-83
2021/05/16 10:43:27;;;;;;;2.40;0.98;;;12.20;99.90;;;;;;5097355;28;20085;-84
2021/05/16 10:45:53;;;;;;;5.10;0.93;;;12.20;99.90;;;;;;5058183;28;20155;-83
2021/05/16 10:48:28;;;;;;;5.10;1.10;;;12.20;99.90;;;;;;5062216;28;20507;-83
2021/05/16 10:50:57;;;;;;;4.25;1.45;;;12.20;99.90;;;;;;5061629;28;20159;-83
2021/05/16 10:53:35;;;;;;;2.38;1.05;;;12.10;99.90;;;;;;5074379;28;20036;-83
2021/05/16 10:56:07;;;;;;;3.40;0.93;;;12.10;99.90;;;;;;5057154;28;20104;-83
2021/05/16 10:58:33;;;;;;;2.88;0.75;;;12.10;99.90;;;;;;5077358;28;20033;-82
2021/05/16 11:01:16;;;;;;;3.92;0.80;;;12.10;99.90;;;;;;5057515;28;20864;-83
2021/05/16 11:03:56;;;;;;;4.80;1.10;;;12.10;99.90;;;;;;5077462;28;20498;-83
2021/05/16 11:06:38;;;;;;;2.58;0.50;;;12.10;99.90;;;;;;5070343;28;20028;-83
2021/05/16 11:09:05;;;;;;;;;;;12.10;99.90;;;;;;5080369;28;20053;-84
2021/05/16 11:11:52;;;;;;;8.02;2.10;;;12.10;99.90;;;;;;5094296;28;19924;-83
2021/05/16 11:14:32;;;;;;;5.05;1.70;;;12.00;99.90;;;;;;5088521;28;20039;-84
2021/05/16 11:17:04;;;;;;;8.52;1.83;;;11.90;99.90;;;;;;5063636;28;20111;-84
2021/05/16 11:19:36;;;;;;;5.05;0.90;;;11.80;99.90;;;;;;5060256;28;20040;-84
2021/05/16 11:22:13;;;;;;;7.93;0.88;;;11.70;99.90;;;;;;5064105;28;20050;-84
2021/05/16 11:24:42;;;;;;;4.60;0.90;;;11.50;99.90;;;;;;5064867;28;20051;-84
2021/05/16 11:27:16;;;;;;;8.77;1.13;;;11.20;99.90;;;;;;5084177;28;20102;-85
2021/05/16 11:29:42;;;;;;;7.47;1.00;;;10.90;99.90;;;;;;5065990;28;20081;-85
2021/05/16 11:32:08;;;;;;;4.47;1.10;;;10.60;99.90;;;;;;5064222;28;20040;-85
2021/05/16 11:34:34;;;;;;;4.70;1.02;;;10.40;99.90;;;;;;5046822;28;20032;-85
2021/05/16 11:37:17;;;;;;;2.65;0.80;;;10.40;99.90;;;;;;5077611;28;20036;-85
2021/05/16 11:39:44;;;;;;;4.13;0.82;;;10.30;99.90;;;;;;5094518;28;20036;-85
2021/05/16 11:42:10;;;;;;;6.80;1.00;;;10.30;99.90;;;;;;5074082;28;20102;-85
2021/05/16 11:44:36;;;;;;;7.53;1.20;;;10.30;99.90;;;;;;5066564;28;20059;-85
2021/05/16 11:47:02;;;;;;;3.38;0.77;;;10.30;99.90;;;;;;5070284;28;20047;-84
2021/05/16 11:49:30;;;;;;;4.40;0.98;;;10.30;99.90;;;;;;5061096;28;20123;-84
2021/05/16 11:52:02;;;;;;;3.75;1.00;;;10.30;99.90;;;;;;5085627;28;20086;-84
2021/05/16 11:54:38;;;;;;;7.05;1.38;;;10.40;99.90;;;;;;5065724;28;20028;-85
2021/05/16 11:57:04;;;;;;;4.80;1.20;;;10.50;99.90;;;;;;5081968;28;20033;-84
2021/05/16 11:59:30;;;;;;;8.23;1.23;;;10.50;99.90;;;;;;5061447;28;20488;-85
2021/05/16 12:02:03;;;;;;;6.55;1.77;;;10.60;99.90;;;;;;5047690;28;20032;-85
2021/05/16 12:04:36;;;;;;;;;;;10.60;99.90;;;;;;5065727;28;20032;-85
2021/05/16 12:07:02;;;;;;;10.77;2.38;;;10.60;99.90;;;;;;5089923;28;20014;-85
2021/05/16 12:09:28;;;;;;;8.20;1.92;;;10.50;99.90;;;;;;5068420;28;20126;-85
2021/05/16 12:11:54;;;;;;;9.73;1.55;;;10.60;99.90;;;;;;5074617;28;20063;-85
2021/05/16 12:14:25;;;;;;;18.83;2.60;;;10.60;99.90;;;;;;5095862;28;20084;-85
2021/05/16 12:16:51;;;;;;;14.68;2.47;;;10.70;99.90;;;;;;5061049;28;20804;-85
2021/05/16 12:19:22;;;;;;;10.82;2.38;;;10.90;99.90;;;;;;5065132;28;20388;-85
2021/05/16 12:22:11;;;;;;;8.18;2.20;;;11.20;99.90;;;;;;5062237;28;20119;-85
2021/05/16 12:24:46;;;;;;;10.43;2.28;;;11.40;99.90;;;;;;5044323;28;20056;-84
2021/05/16 12:27:14;;;;;;;9.18;2.35;;;11.40;99.90;;;;;;5093852;28;20115;-85
2021/05/16 12:29:40;;;;;;;8.88;2.00;;;11.50;99.90;;;;;;5081625;28;20066;-85
2021/05/16 12:32:08;;;;;;;5.50;1.58;;;11.60;99.90;;;;;;5064092;28;20036;-84
2021/05/16 12:34:34;;;;;;;11.20;2.47;;;11.80;99.90;;;;;;5075743;28;20032;-84
2021/05/16 12:37:04;;;;;;;7.72;1.75;;;11.90;99.90;;;;;;5066944;28;20050;-84
2021/05/16 12:39:44;;;;;;;11.32;2.20;;;11.90;99.90;;;;;;5061609;28;20028;-84